createdAt,value
2023-05-17T00:01:38.276Z,13.20
2023-05-17T00:04:06.441Z,16.98
2023-05-17T00:06:35.049Z,19.63
2023-05-17T00:09:03.239Z,15.88
2023-05-17T00:11:32.653Z,20.45
2023-05-17T00:14:00.548Z,14.73
2023-05-17T00:16:32.851Z,16.45
2023-05-17T00:19:05.427Z,16.00
2023-05-17T00:21:33.527Z,16.92
2023-05-17T00:24:01.510Z,17.27
2023-05-17T00:26:29.533Z,15.23
2023-05-17T00:28:58.893Z,16.48
2023-05-17T00:31:26.739Z,16.65
2023-05-17T00:33:55.125Z,15.13
2023-05-17T00:36:23.009Z,16.42
2023-05-17T00:38:50.776Z,16.35
2023-05-17T00:41:18.661Z,17.90
2023-05-17T00:43:46.499Z,16.15
2023-05-17T00:46:16.171Z,16.58
2023-05-17T00:48:44.270Z,18.13
2023-05-17T00:51:13.269Z,20.90
2023-05-17T00:53:41.116Z,17.42
2023-05-17T00:56:09.032Z,20.42
2023-05-17T00:58:38.136Z,19.15
2023-05-17T01:01:06.151Z,21.08
2023-05-17T01:03:35.463Z,19.48
2023-05-17T01:06:03.612Z,18.38
2023-05-17T01:08:31.575Z,16.73
2023-05-17T01:11:08.010Z,21.08
2023-05-17T01:13:43.565Z,17.25
2023-05-17T01:16:17.296Z,21.55
2023-05-17T01:18:53.785Z,17.42
2023-05-17T01:21:36.568Z,18.05
2023-05-17T01:24:17.951Z,16.08
2023-05-17T01:26:50.800Z,17.42
2023-05-17T01:29:23.306Z,15.70
2023-05-17T01:31:51.260Z,20.05
2023-05-17T01:34:26.345Z,17.58
2023-05-17T01:36:54.297Z,18.05
2023-05-17T01:39:22.342Z,16.42
2023-05-17T01:42:01.011Z,17.10
2023-05-17T01:44:38.379Z,16.77
2023-05-17T01:47:13.100Z,15.48
2023-05-17T01:49:42.649Z,16.58
2023-05-17T01:52:17.264Z,16.90
2023-05-17T01:54:48.833Z,14.20
2023-05-17T01:57:22.416Z,16.90
2023-05-17T01:59:52.880Z,16.33
2023-05-17T02:02:22.690Z,19.08
2023-05-17T02:04:51.642Z,14.73
2023-05-17T02:07:19.588Z,15.38
2023-05-17T02:09:47.585Z,15.52
2023-05-17T02:12:15.361Z,17.27
2023-05-17T02:14:44.738Z,15.82
2023-05-17T02:17:13.486Z,15.73
2023-05-17T02:19:41.354Z,20.48
2023-05-17T02:22:09.134Z,22.02
2023-05-17T02:24:37.641Z,16.35
2023-05-17T02:27:05.871Z,22.70
2023-05-17T02:29:34.707Z,17.80
2023-05-17T02:32:04.159Z,16.25
2023-05-17T02:34:32.055Z,17.50
2023-05-17T02:36:59.837Z,18.00
2023-05-17T02:39:27.763Z,16.20
2023-05-17T02:41:55.613Z,19.40
2023-05-17T02:44:23.629Z,15.63
2023-05-17T02:46:51.485Z,18.08
2023-05-17T02:49:20.627Z,17.90
2023-05-17T02:51:48.432Z,17.88
2023-05-17T02:54:16.260Z,16.23
2023-05-17T02:56:44.066Z,16.10
2023-05-17T02:59:12.036Z,16.13
2023-05-17T03:01:39.824Z,15.43
2023-05-17T03:04:07.757Z,13.40
2023-05-17T03:06:38.513Z,16.02
2023-05-17T03:09:06.967Z,14.57
2023-05-17T03:11:35.297Z,15.30
2023-05-17T03:14:03.126Z,15.55
2023-05-17T03:16:31.024Z,14.48
2023-05-17T03:18:59.559Z,15.00
2023-05-17T03:21:27.512Z,15.13
2023-05-17T03:23:56.740Z,17.85
2023-05-17T03:26:25.050Z,18.25
2023-05-17T03:28:52.848Z,19.92
2023-05-17T03:31:20.795Z,19.58
2023-05-17T03:33:48.701Z,18.30
2023-05-17T03:36:16.643Z,18.52
2023-05-17T03:38:44.413Z,16.08
2023-05-17T03:41:14.040Z,19.67
2023-05-17T03:43:41.898Z,18.85
2023-05-17T03:46:09.845Z,18.60
2023-05-17T03:48:37.708Z,19.80
2023-05-17T03:51:05.936Z,15.85
2023-05-17T03:53:33.705Z,15.60
2023-05-17T03:56:01.561Z,14.68
2023-05-17T03:58:30.751Z,14.55
2023-05-17T04:00:58.492Z,16.55
2023-05-17T04:03:26.553Z,18.95
2023-05-17T04:05:54.357Z,18.48
2023-05-17T04:08:22.171Z,15.60
2023-05-17T04:10:49.953Z,15.27
2023-05-17T04:13:17.769Z,15.27
2023-05-17T04:15:46.912Z,14.90
2023-05-17T04:18:14.836Z,14.02
2023-05-17T04:20:43.614Z,13.10
2023-05-17T04:23:11.431Z,13.15
2023-05-17T04:25:39.350Z,16.67
2023-05-17T04:28:07.181Z,11.55
2023-05-17T04:30:35.049Z,13.30
2023-05-17T04:33:04.409Z,13.98
2023-05-17T04:35:32.249Z,13.60
2023-05-17T04:38:00.047Z,15.90
2023-05-17T04:40:28.484Z,12.57
2023-05-17T04:42:56.298Z,14.48
2023-05-17T04:45:24.087Z,14.40
2023-05-17T04:47:52.870Z,12.05
2023-05-17T04:50:22.078Z,11.75
2023-05-17T04:52:50.180Z,11.05
2023-05-17T04:55:18.074Z,12.85
2023-05-17T04:57:45.910Z,9.52
2023-05-17T05:00:15.472Z,10.20
2023-05-17T05:02:43.507Z,11.88
2023-05-17T05:05:12.150Z,12.68
2023-05-17T05:07:41.498Z,14.18
2023-05-17T05:10:09.993Z,9.30
2023-05-17T05:12:38.673Z,12.13
2023-05-17T05:15:07.516Z,10.05
2023-05-17T05:17:35.403Z,10.98
2023-05-17T05:20:04.207Z,10.15
2023-05-17T05:22:32.187Z,12.45
2023-05-17T05:25:01.560Z,13.63
2023-05-17T05:27:29.397Z,14.15
2023-05-17T05:29:57.325Z,13.32
2023-05-17T05:32:25.278Z,16.85
2023-05-17T05:34:53.085Z,11.77
2023-05-17T05:37:20.909Z,12.27
2023-05-17T05:39:48.797Z,12.52
2023-05-17T05:42:17.922Z,15.23
2023-05-17T05:44:45.904Z,12.48
2023-05-17T05:47:13.798Z,12.68
2023-05-17T05:49:41.700Z,15.20
2023-05-17T05:52:11.834Z,13.60
2023-05-17T05:54:39.589Z,12.40
2023-05-17T05:57:07.470Z,13.75
2023-05-17T05:59:36.657Z,15.80
2023-05-17T06:02:04.801Z,14.75
2023-05-17T06:04:43.934Z,18.85
2023-05-17T06:07:13.639Z,15.90
2023-05-17T06:09:42.071Z,17.48
2023-05-17T06:12:10.111Z,20.23
2023-05-17T06:14:39.393Z,14.00
2023-05-17T06:17:07.234Z,16.85
2023-05-17T06:19:35.173Z,20.08
2023-05-17T06:22:03.241Z,14.43
2023-05-17T06:24:31.218Z,12.48
2023-05-17T06:26:59.095Z,13.50
2023-05-17T06:29:27.427Z,19.00
2023-05-17T06:31:58.118Z,16.85
2023-05-17T06:34:25.933Z,12.52
2023-05-17T06:36:53.881Z,13.43
2023-05-17T06:39:21.616Z,12.88
2023-05-17T06:41:49.346Z,16.77
2023-05-17T06:44:17.209Z,14.10
2023-05-17T06:46:45.051Z,12.65
2023-05-17T06:49:14.190Z,14.45
2023-05-17T06:51:41.973Z,14.65
2023-05-17T06:54:09.715Z,10.82
2023-05-17T06:56:37.717Z,12.20
2023-05-17T06:59:05.539Z,11.02
2023-05-17T07:01:33.362Z,10.48
2023-05-17T07:04:01.329Z,9.15
2023-05-17T07:06:31.378Z,7.20
2023-05-17T07:08:59.192Z,8.98
2023-05-17T07:11:27.030Z,8.23
2023-05-17T07:13:54.877Z,6.22
2023-05-17T07:16:22.632Z,6.78
2023-05-17T07:18:50.540Z,6.15
2023-05-17T07:21:18.466Z,9.35
2023-05-17T07:23:47.684Z,6.25
2023-05-17T07:26:15.494Z,6.88
2023-05-17T07:28:44.270Z,9.40
2023-05-17T07:31:12.027Z,4.70
2023-05-17T07:33:39.933Z,4.90
2023-05-17T07:36:08.511Z,5.78
2023-05-17T07:38:36.777Z,6.90
2023-05-17T07:41:09.553Z,4.47
2023-05-17T07:43:38.500Z,4.57
2023-05-17T07:46:08.226Z,6.78
2023-05-17T07:48:36.162Z,7.90
2023-05-17T07:51:04.035Z,5.15
2023-05-17T07:53:31.836Z,6.50
2023-05-17T07:55:59.675Z,4.43
2023-05-17T07:58:28.802Z,4.43
2023-05-17T08:00:56.636Z,5.13
2023-05-17T08:03:24.577Z,6.20
2023-05-17T08:05:52.470Z,6.22
2023-05-17T08:08:21.126Z,4.43
2023-05-17T08:10:49.756Z,7.38
2023-05-17T08:13:17.557Z,4.90
2023-05-17T08:15:46.744Z,2.97
2023-05-17T08:18:14.663Z,3.90
2023-05-17T08:20:43.277Z,3.80
2023-05-17T08:23:11.184Z,3.47
2023-05-17T08:25:39.049Z,3.33
2023-05-17T08:28:06.974Z,3.50
2023-05-17T08:30:34.917Z,3.13
2023-05-17T08:33:04.384Z,3.47
2023-05-17T08:35:32.584Z,9.38
2023-05-17T08:38:00.506Z,3.75
2023-05-17T08:40:29.517Z,3.50
2023-05-17T08:42:58.068Z,3.45
2023-05-17T08:45:28.090Z,5.70
2023-05-17T08:47:56.932Z,6.00
2023-05-17T08:50:30.460Z,3.08
2023-05-17T08:52:59.953Z,5.28
2023-05-17T08:55:30.715Z,3.20
2023-05-17T08:57:58.611Z,3.38
2023-05-17T09:00:28.312Z,4.68
2023-05-17T09:02:57.159Z,3.30
2023-05-17T09:05:26.530Z,4.53
2023-05-17T09:07:55.098Z,8.18
2023-05-17T09:10:23.052Z,3.15
2023-05-17T09:12:51.073Z,2.00
2023-05-17T09:15:20.148Z,1.73
2023-05-17T09:17:53.436Z,1.70
2023-05-17T09:20:34.710Z,1.85
2023-05-17T09:23:02.899Z,2.17
2023-05-17T09:25:31.576Z,2.58
2023-05-17T09:28:02.846Z,1.50
2023-05-17T09:30:31.509Z,2.72
2023-05-17T09:33:06.150Z,2.28
2023-05-17T09:35:37.679Z,1.35
2023-05-17T09:38:08.697Z,1.52
2023-05-17T09:40:40.130Z,1.20
2023-05-17T09:43:08.310Z,1.30
2023-05-17T09:45:37.441Z,1.92
2023-05-17T09:48:13.894Z,2.47
2023-05-17T09:50:47.448Z,1.38
2023-05-17T09:53:29.042Z,1.20
2023-05-17T09:55:58.635Z,1.58
2023-05-17T09:58:28.358Z,1.50
2023-05-17T10:01:01.697Z,2.83
2023-05-17T10:03:33.275Z,1.48
2023-05-17T10:06:05.609Z,1.65
2023-05-17T10:08:34.736Z,1.77
2023-05-17T10:11:06.799Z,1.38
2023-05-17T10:13:37.142Z,2.15
2023-05-17T10:16:05.463Z,1.35
2023-05-17T10:18:34.230Z,2.67
2023-05-17T10:21:03.882Z,1.67
2023-05-17T10:23:32.651Z,1.30
2023-05-17T10:26:00.983Z,1.35
2023-05-17T10:28:31.641Z,1.10
2023-05-17T10:31:00.850Z,1.20
2023-05-17T10:33:28.984Z,3.70
2023-05-17T10:35:57.272Z,1.05
2023-05-17T10:38:35.302Z,1.20
2023-05-17T10:41:10.031Z,1.48
2023-05-17T10:43:39.132Z,1.30
2023-05-17T10:46:15.001Z,3.05
2023-05-17T10:48:43.191Z,1.85
2023-05-17T10:51:12.393Z,1.20
2023-05-17T10:54:12.854Z,1.10
2023-05-17T10:56:42.668Z,1.38
2023-05-17T10:59:21.759Z,1.33
2023-05-17T11:01:52.672Z,1.85
2023-05-17T11:04:26.191Z,5.47
2023-05-17T11:06:57.365Z,4.45
2023-05-17T11:09:26.770Z,1.52
2023-05-17T11:12:10.986Z,1.40
2023-05-17T11:14:48.906Z,1.40
2023-05-17T11:17:17.972Z,1.60
2023-05-17T11:20:32.917Z,2.72
2023-05-17T11:23:04.209Z,1.25
2023-05-17T11:25:36.055Z,2.00
2023-05-17T11:28:20.615Z,1.30
2023-05-17T11:30:53.587Z,1.10
2023-05-17T11:33:32.941Z,1.33
2023-05-17T11:36:07.436Z,1.10
2023-05-17T11:38:35.701Z,1.10
2023-05-17T11:43:53.431Z,1.52
2023-05-17T11:46:23.136Z,1.23
2023-05-17T11:48:54.715Z,1.23
2023-05-17T11:51:24.889Z,1.63
2023-05-17T11:53:55.923Z,1.40
2023-05-17T11:56:35.521Z,3.72
2023-05-17T11:59:10.347Z,1.40
2023-05-17T12:01:46.109Z,1.58
2023-05-17T12:04:14.106Z,2.47
2023-05-17T12:06:42.552Z,1.25
2023-05-17T12:09:13.509Z,1.63
2023-05-17T12:11:43.363Z,2.15
2023-05-17T12:14:11.481Z,2.15
2023-05-17T12:16:47.577Z,3.78
2023-05-17T12:19:20.163Z,1.98
2023-05-17T12:21:48.506Z,1.63
2023-05-17T12:24:16.884Z,1.42
2023-05-17T12:26:47.020Z,2.75
2023-05-17T12:29:17.834Z,6.15
2023-05-17T12:31:49.597Z,1.35
2023-05-17T12:34:19.294Z,1.60
2023-05-17T12:36:47.678Z,1.88
2023-05-17T12:39:18.068Z,2.40
2023-05-17T12:41:48.902Z,2.03
2023-05-17T12:44:17.072Z,1.30
2023-05-17T12:46:45.701Z,1.60
2023-05-17T12:49:13.796Z,1.60
2023-05-17T12:51:43.640Z,1.70
2023-05-17T12:54:12.701Z,1.73
2023-05-17T12:56:43.006Z,1.05
2023-05-17T12:59:14.824Z,1.40
2023-05-17T13:01:44.870Z,1.70
2023-05-17T13:04:13.567Z,1.35
2023-05-17T13:06:46.812Z,1.65
2023-05-17T13:09:16.510Z,2.70
2023-05-17T13:11:44.350Z,1.25
2023-05-17T13:14:13.646Z,1.23
2023-05-17T13:16:42.809Z,2.78
2023-05-17T13:19:14.876Z,1.10
2023-05-17T13:21:42.713Z,1.10
2023-05-17T13:24:11.051Z,1.02
2023-05-17T13:26:39.049Z,1.10
2023-05-17T13:29:07.011Z,1.20
2023-05-17T13:31:36.247Z,1.15
2023-05-17T13:34:04.291Z,0.90
2023-05-17T13:36:32.190Z,5.63
2023-05-17T13:39:01.957Z,1.17
2023-05-17T13:41:29.849Z,1.90
2023-05-17T13:43:58.322Z,1.67
2023-05-17T13:46:26.478Z,2.65
2023-05-17T13:48:56.757Z,1.77
2023-05-17T13:51:25.509Z,3.53
2023-05-17T13:53:53.382Z,3.10
2023-05-17T13:56:22.348Z,2.03
2023-05-17T13:58:50.607Z,2.80
2023-05-17T14:01:18.940Z,1.92
2023-05-17T14:03:46.999Z,4.25
2023-05-17T14:06:16.154Z,5.03
2023-05-17T14:08:44.982Z,2.28
2023-05-17T14:11:12.928Z,2.67
2023-05-17T14:13:41.653Z,4.07
2023-05-17T14:16:09.442Z,2.55
2023-05-17T14:18:38.534Z,4.07
2023-05-17T14:21:08.113Z,1.52
2023-05-17T14:23:37.717Z,1.63
2023-05-17T14:26:07.448Z,1.45
2023-05-17T14:28:38.002Z,1.48
2023-05-17T14:31:07.467Z,1.38
2023-05-17T14:33:36.380Z,1.55
2023-05-17T14:36:06.659Z,1.35
2023-05-17T14:38:34.537Z,3.17
2023-05-17T14:41:06.713Z,1.30
2023-05-17T14:43:34.693Z,1.27
2023-05-17T14:46:02.541Z,2.08
2023-05-17T14:48:31.068Z,1.40
2023-05-17T14:50:58.896Z,1.15
2023-05-17T14:53:29.165Z,1.38
2023-05-17T14:55:58.179Z,1.50
2023-05-17T14:58:27.444Z,1.20
2023-05-17T15:01:04.716Z,1.77
2023-05-17T15:03:34.266Z,1.88
2023-05-17T15:06:05.104Z,1.38
2023-05-17T15:08:35.212Z,2.65
2023-05-17T15:11:03.188Z,1.30
2023-05-17T15:13:32.412Z,1.63
2023-05-17T15:16:01.010Z,2.40
2023-05-17T15:18:28.872Z,1.52
2023-05-17T15:20:56.599Z,2.17
2023-05-17T15:23:24.387Z,1.92
2023-05-17T15:25:52.275Z,3.13
2023-05-17T15:28:21.187Z,6.25
2023-05-17T15:31:00.014Z,1.63
2023-05-17T15:33:28.208Z,2.50
2023-05-17T15:35:56.053Z,1.92
2023-05-17T15:38:23.890Z,1.70
2023-05-17T15:41:02.622Z,1.50
2023-05-17T15:43:31.230Z,1.80
2023-05-17T15:46:00.337Z,2.35
2023-05-17T15:48:29.228Z,1.40
2023-05-17T15:50:57.674Z,2.50
2023-05-17T15:53:27.181Z,3.10
2023-05-17T15:55:55.197Z,1.23
2023-05-17T15:58:24.764Z,1.40
2023-05-17T16:00:52.538Z,1.25
2023-05-17T16:03:22.112Z,1.17
2023-05-17T16:05:50.055Z,1.95
2023-05-17T16:08:17.969Z,1.60
2023-05-17T16:10:45.975Z,2.60
2023-05-17T16:13:13.966Z,1.17
2023-05-17T16:15:42.271Z,2.97
2023-05-17T16:18:10.856Z,2.15
2023-05-17T16:20:40.334Z,4.38
2023-05-17T16:23:08.601Z,1.58
2023-05-17T16:25:37.606Z,2.55
2023-05-17T16:28:05.433Z,1.38
2023-05-17T16:30:33.291Z,3.83
2023-05-17T16:33:01.328Z,1.70
2023-05-17T16:35:29.483Z,1.40
2023-05-17T16:37:58.785Z,1.30
2023-05-17T16:40:29.444Z,1.90
2023-05-17T16:42:57.891Z,1.45
2023-05-17T16:45:25.670Z,1.40
2023-05-17T16:47:53.504Z,2.45
2023-05-17T16:50:21.715Z,4.05
2023-05-17T16:52:49.599Z,1.30
2023-05-17T16:55:19.065Z,2.03
2023-05-17T16:57:46.866Z,1.80
2023-05-17T17:00:15.504Z,1.88
2023-05-17T17:02:43.553Z,1.30
2023-05-17T17:05:11.787Z,1.88
2023-05-17T17:07:39.689Z,1.40
2023-05-17T17:10:08.408Z,2.00
2023-05-17T17:12:37.538Z,2.13
2023-05-17T17:15:07.851Z,3.70
2023-05-17T17:17:36.136Z,4.07
2023-05-17T17:20:05.534Z,1.48
2023-05-17T17:22:33.369Z,1.67
2023-05-17T17:25:01.352Z,2.00
2023-05-17T17:27:29.201Z,1.83
2023-05-17T17:29:58.348Z,2.55
2023-05-17T17:32:27.009Z,1.70
2023-05-17T17:34:55.007Z,2.55
2023-05-17T17:37:23.012Z,4.75
2023-05-17T17:39:50.830Z,1.60
2023-05-17T17:42:18.793Z,2.30
2023-05-17T17:44:47.014Z,2.00
2023-05-17T17:47:16.350Z,2.65
2023-05-17T17:49:44.173Z,2.75
2023-05-17T17:52:12.093Z,2.35
2023-05-17T17:54:39.918Z,3.88
2023-05-17T17:57:08.202Z,2.83
2023-05-17T17:59:36.040Z,2.65
2023-05-17T18:02:03.861Z,2.97
2023-05-17T18:04:33.073Z,2.40
2023-05-17T18:07:02.201Z,1.92
2023-05-17T18:09:30.035Z,3.15
2023-05-17T18:11:59.525Z,2.20
2023-05-17T18:14:27.328Z,2.72
2023-05-17T18:16:55.212Z,1.75
2023-05-17T18:19:23.179Z,1.70
2023-05-17T18:21:52.362Z,1.73
2023-05-17T18:24:20.374Z,7.00
2023-05-17T18:26:48.280Z,1.67
2023-05-17T18:29:16.064Z,5.43
2023-05-17T18:31:44.043Z,1.58
2023-05-17T18:34:12.400Z,2.10
2023-05-17T18:36:40.173Z,2.58
2023-05-17T18:39:09.323Z,2.33
2023-05-17T18:41:37.104Z,1.73
2023-05-17T18:44:04.927Z,4.28
2023-05-17T18:46:33.077Z,1.67
2023-05-17T18:49:00.883Z,1.67
2023-05-17T18:51:28.944Z,2.10
2023-05-17T18:53:56.968Z,1.75
2023-05-17T18:56:26.730Z,1.83
2023-05-17T18:58:55.401Z,2.47
2023-05-17T19:01:23.446Z,1.67
2023-05-17T19:03:55.039Z,2.75
2023-05-17T19:06:23.438Z,2.15
2023-05-17T19:08:51.916Z,2.22
2023-05-17T19:11:19.798Z,2.10
2023-05-17T19:13:49.159Z,3.15
2023-05-17T19:16:18.187Z,4.28
2023-05-17T19:18:46.144Z,5.30
2023-05-17T19:21:14.032Z,5.18
2023-05-17T19:23:41.914Z,2.17
2023-05-17T19:26:09.765Z,2.70
2023-05-17T19:28:37.640Z,1.98
2023-05-17T19:31:08.260Z,2.40
2023-05-17T19:33:37.705Z,1.95
2023-05-17T19:36:06.486Z,4.28
2023-05-17T19:38:34.340Z,1.80
2023-05-17T19:41:03.838Z,2.53
2023-05-17T19:43:35.598Z,3.50
2023-05-17T19:46:03.504Z,2.15
2023-05-17T19:48:32.686Z,2.83
2023-05-17T19:51:00.506Z,3.00
2023-05-17T19:53:36.912Z,2.53
2023-05-17T19:56:12.064Z,7.07
2023-05-17T19:58:40.034Z,4.82
2023-05-17T20:01:07.795Z,3.30
2023-05-17T20:03:37.058Z,2.70
2023-05-17T20:06:05.185Z,2.47
2023-05-17T20:08:33.007Z,2.20
2023-05-17T20:11:01.003Z,2.30
2023-05-17T20:13:29.623Z,2.55
2023-05-17T20:15:57.592Z,2.80
2023-05-17T20:18:27.623Z,4.07
2023-05-17T20:20:56.862Z,2.70
2023-05-17T20:23:24.619Z,2.25
2023-05-17T20:25:52.509Z,5.30
2023-05-17T20:28:20.686Z,3.75
2023-05-17T20:30:48.498Z,2.72
2023-05-17T20:33:16.378Z,4.40
2023-05-17T20:35:44.173Z,3.10
2023-05-17T20:38:13.270Z,4.57
2023-05-17T20:40:41.990Z,2.30
2023-05-17T20:43:09.910Z,4.93
2023-05-17T20:45:37.778Z,5.57
2023-05-17T20:48:05.639Z,2.97
2023-05-17T20:50:33.510Z,3.60
2023-05-17T20:53:01.372Z,5.88
2023-05-17T20:55:30.624Z,4.57
2023-05-17T20:57:58.495Z,5.80
2023-05-17T21:00:26.307Z,4.22
2023-05-17T21:02:54.204Z,6.40
2023-05-17T21:05:22.301Z,4.28
2023-05-17T21:07:50.527Z,3.38
2023-05-17T21:10:18.940Z,4.63
2023-05-17T21:12:48.211Z,3.65
2023-05-17T21:15:17.499Z,4.72
2023-05-17T21:17:45.573Z,4.43
2023-05-17T21:20:13.968Z,4.15
2023-05-17T21:22:41.871Z,3.65
2023-05-17T21:25:10.681Z,3.00
2023-05-17T21:27:38.481Z,3.45
2023-05-17T21:30:09.127Z,2.90
2023-05-17T21:32:37.171Z,5.10
2023-05-17T21:35:05.398Z,2.58
2023-05-17T21:37:33.401Z,2.75
2023-05-17T21:40:01.339Z,4.40
2023-05-17T21:42:29.175Z,4.13
2023-05-17T21:44:57.492Z,2.38
2023-05-17T21:47:26.893Z,4.32
2023-05-17T21:49:55.486Z,3.15
2023-05-17T21:52:23.308Z,3.70
2023-05-17T21:54:51.092Z,3.55
2023-05-17T21:57:20.941Z,2.65
2023-05-17T21:59:49.012Z,5.00
2023-05-17T22:02:16.955Z,3.00
2023-05-17T22:04:46.156Z,2.72
2023-05-17T22:07:14.173Z,3.70
2023-05-17T22:09:41.991Z,2.80
2023-05-17T22:12:12.253Z,2.88
2023-05-17T22:14:44.540Z,3.80
2023-05-17T22:17:12.361Z,2.97
2023-05-17T22:19:41.706Z,4.72
2023-05-17T22:22:11.046Z,3.45
2023-05-17T22:24:39.264Z,4.90
2023-05-17T22:27:07.329Z,3.97
2023-05-17T22:29:35.150Z,7.22
2023-05-17T22:32:02.951Z,3.53
2023-05-17T22:34:30.931Z,7.40
2023-05-17T22:36:58.871Z,4.57
2023-05-17T22:39:28.017Z,3.33
2023-05-17T22:41:55.946Z,2.80
2023-05-17T22:44:24.065Z,4.85
2023-05-17T22:46:52.067Z,2.83
2023-05-17T22:49:20.335Z,2.40
2023-05-17T22:51:51.899Z,2.95
2023-05-17T22:54:19.779Z,2.60
2023-05-17T22:56:48.958Z,3.17
2023-05-17T22:59:16.766Z,4.05
2023-05-17T23:01:44.746Z,4.03
2023-05-17T23:04:12.649Z,4.93
2023-05-17T23:06:40.521Z,5.53
2023-05-17T23:09:08.575Z,4.07
2023-05-17T23:11:36.603Z,5.53
2023-05-17T23:14:05.890Z,6.45
2023-05-17T23:16:35.985Z,5.85
2023-05-17T23:19:04.053Z,2.60
2023-05-17T23:21:33.297Z,4.22
2023-05-17T23:24:01.149Z,6.57
2023-05-17T23:26:29.476Z,2.63
2023-05-17T23:28:57.384Z,2.55
2023-05-17T23:31:26.793Z,6.03
2023-05-17T23:33:54.576Z,3.30
2023-05-17T23:36:22.380Z,3.00
2023-05-17T23:38:50.139Z,5.72
2023-05-17T23:41:19.750Z,2.63
2023-05-17T23:43:48.065Z,5.15
2023-05-17T23:46:19.931Z,4.53
2023-05-17T23:48:51.108Z,2.65
2023-05-17T23:51:21.403Z,4.50
2023-05-17T23:53:51.958Z,3.67
2023-05-17T23:56:21.537Z,3.97
2023-05-17T23:58:49.408Z,4.03
